createdAt,value
2022-12-18T00:01:49.375Z,31.40
2022-12-18T00:05:11.531Z,33.30
2022-12-18T00:09:09.366Z,30.30
2022-12-18T00:12:50.437Z,23.60
2022-12-18T00:16:16.748Z,35.70
2022-12-18T00:19:50.054Z,32.20
2022-12-18T00:23:28.720Z,26.70
2022-12-18T00:27:05.274Z,31.80
2022-12-18T00:30:43.102Z,27.20
2022-12-18T00:34:20.609Z,33.40
2022-12-18T00:38:17.568Z,32.10
2022-12-18T00:41:58.445Z,32.40
2022-12-18T00:45:26.210Z,34.20
2022-12-18T00:48:59.720Z,27.70
2022-12-18T00:52:45.987Z,32.90
2022-12-18T00:56:14.766Z,27.00
2022-12-18T00:59:55.552Z,37.50
2022-12-18T01:03:30.193Z,31.10
2022-12-18T01:07:08.155Z,30.10
2022-12-18T01:10:45.505Z,20.40
2022-12-18T01:14:23.451Z,25.30
2022-12-18T01:18:19.845Z,32.30
2022-12-18T01:21:42.332Z,29.00
2022-12-18T01:25:38.978Z,32.20
2022-12-18T01:29:20.111Z,44.00
2022-12-18T01:32:42.232Z,33.80
2022-12-18T01:36:26.596Z,39.50
2022-12-18T01:40:16.505Z,41.70
2022-12-18T01:43:50.304Z,40.70
2022-12-18T01:47:40.364Z,39.50
2022-12-18T01:51:23.212Z,36.30
2022-12-18T01:54:46.332Z,44.30
2022-12-18T01:58:31.799Z,36.60
2022-12-18T02:02:21.627Z,44.20
2022-12-18T02:05:50.175Z,47.10
2022-12-18T02:09:34.318Z,43.20
2022-12-18T02:14:08.138Z,36.00
2022-12-18T02:17:57.661Z,38.50
2022-12-18T02:21:43.407Z,41.40
2022-12-18T02:25:47.886Z,29.00
2022-12-18T02:29:19.704Z,42.10
2022-12-18T02:33:11.353Z,40.20
2022-12-18T02:36:55.071Z,40.70
2022-12-18T02:40:19.997Z,31.40
2022-12-18T02:44:15.074Z,33.70
2022-12-18T02:47:41.725Z,42.40
2022-12-18T02:51:31.074Z,35.00
2022-12-18T02:55:29.040Z,32.10
2022-12-18T02:59:22.490Z,34.00
2022-12-18T03:03:03.365Z,32.10
2022-12-18T03:06:50.574Z,26.10
2022-12-18T03:10:17.872Z,34.60
2022-12-18T03:14:11.070Z,50.20
2022-12-18T03:17:59.670Z,39.70
2022-12-18T03:21:29.331Z,35.60
2022-12-18T03:25:19.694Z,31.80
2022-12-18T03:28:48.297Z,35.10
2022-12-18T03:32:34.472Z,29.20
2022-12-18T03:35:59.585Z,38.80
2022-12-18T03:39:37.596Z,34.40
2022-12-18T03:44:03.911Z,33.60
2022-12-18T03:48:06.865Z,36.60
2022-12-18T03:51:43.358Z,32.30
2022-12-18T03:55:34.088Z,34.10
2022-12-18T03:59:19.381Z,42.30
2022-12-18T04:03:04.202Z,34.40
2022-12-18T04:06:51.312Z,38.50
2022-12-18T04:10:32.696Z,42.10
2022-12-18T04:14:17.860Z,34.80
2022-12-18T04:17:48.818Z,44.80
2022-12-18T04:21:18.409Z,30.20
2022-12-18T04:25:15.121Z,36.00
2022-12-18T04:28:48.851Z,33.00
2022-12-18T04:32:50.494Z,44.10
2022-12-18T04:36:34.185Z,47.10
2022-12-18T04:39:56.625Z,44.00
2022-12-18T04:43:34.362Z,33.00
2022-12-18T04:47:31.376Z,39.00
2022-12-18T04:50:53.914Z,30.70
2022-12-18T04:54:31.484Z,31.50
2022-12-18T04:58:09.586Z,29.70
2022-12-18T05:02:06.105Z,28.30
2022-12-18T05:05:29.018Z,39.50
2022-12-18T05:09:09.944Z,27.30
2022-12-18T05:13:05.560Z,33.20
2022-12-18T05:16:28.077Z,38.40
2022-12-18T05:20:06.147Z,42.40
2022-12-18T05:23:43.718Z,31.20
2022-12-18T05:27:21.740Z,30.30
2022-12-18T05:31:18.043Z,40.90
2022-12-18T05:34:41.484Z,32.30
2022-12-18T05:38:19.028Z,30.90
2022-12-18T05:42:15.007Z,36.00
2022-12-18T05:45:41.713Z,29.40
2022-12-18T05:49:33.826Z,25.00
2022-12-18T05:52:56.384Z,21.30
2022-12-18T05:56:52.990Z,29.50
2022-12-18T06:00:16.761Z,30.30
2022-12-18T06:04:12.534Z,23.60
2022-12-18T06:07:53.733Z,41.20
2022-12-18T06:11:22.407Z,37.30
2022-12-18T06:14:53.849Z,22.90
2022-12-18T06:18:50.454Z,25.00
2022-12-18T06:22:13.228Z,32.80
2022-12-18T06:26:13.784Z,32.70
2022-12-18T06:29:36.295Z,30.20
2022-12-18T06:33:34.902Z,24.20
2022-12-18T06:37:16.403Z,31.60
2022-12-18T06:40:58.443Z,26.00
2022-12-18T06:44:21.503Z,30.40
2022-12-18T06:48:21.397Z,24.90
2022-12-18T06:52:03.212Z,29.00
2022-12-18T06:55:26.823Z,24.60
2022-12-18T06:59:03.678Z,29.20
2022-12-18T07:02:41.645Z,28.60
2022-12-18T07:06:37.648Z,27.60
2022-12-18T07:10:19.168Z,30.60
2022-12-18T07:13:42.679Z,27.70
2022-12-18T07:17:38.432Z,34.70
2022-12-18T07:21:05.705Z,28.10
2022-12-18T07:24:38.790Z,31.20
2022-12-18T07:28:17.608Z,31.50
2022-12-18T07:31:54.593Z,32.40
2022-12-18T07:35:31.614Z,32.20
2022-12-18T07:39:09.418Z,30.30
2022-12-18T07:43:05.923Z,40.70
2022-12-18T07:46:47.928Z,32.70
2022-12-18T07:50:29.273Z,35.30
2022-12-18T07:53:53.556Z,34.80
2022-12-18T08:01:13.039Z,41.60
2022-12-18T08:04:50.504Z,33.90
2022-12-18T08:08:32.549Z,29.70
2022-12-18T08:12:06.046Z,31.10
2022-12-18T08:16:05.544Z,32.80
2022-12-18T08:19:27.438Z,18.30
2022-12-18T08:23:05.180Z,20.40
2022-12-18T08:26:51.856Z,25.70
2022-12-18T08:30:25.206Z,21.40
2022-12-18T08:34:01.323Z,33.60
2022-12-18T08:37:39.186Z,42.00
2022-12-18T08:41:18.064Z,69.70
2022-12-18T08:44:54.630Z,42.10
2022-12-18T08:48:52.242Z,23.10
2022-12-18T08:52:15.448Z,18.60
2022-12-18T08:56:11.185Z,33.00
2022-12-18T08:59:52.426Z,23.60
2022-12-18T09:03:16.220Z,18.30
2022-12-18T09:06:52.401Z,23.10
2022-12-18T09:10:30.765Z,24.00
2022-12-18T09:14:07.833Z,17.60
2022-12-18T09:17:45.175Z,21.80
2022-12-18T09:21:23.226Z,35.10
2022-12-18T09:25:08.886Z,29.10
2022-12-18T09:28:38.720Z,42.20
2022-12-18T09:32:22.008Z,35.60
2022-12-18T09:35:53.886Z,48.60
2022-12-18T09:39:31.240Z,42.50
2022-12-18T09:43:19.770Z,32.20
2022-12-18T09:47:25.013Z,16.90
2022-12-18T09:50:50.032Z,20.40
2022-12-18T09:54:36.910Z,21.50
2022-12-18T09:58:25.528Z,27.80
2022-12-18T10:01:48.685Z,28.50
2022-12-18T10:05:41.197Z,15.30
2022-12-18T10:09:28.637Z,19.00
2022-12-18T10:13:05.885Z,27.10
2022-12-18T10:16:44.969Z,18.30
2022-12-18T10:20:24.764Z,21.10
2022-12-18T10:24:02.115Z,32.00
2022-12-18T10:27:27.402Z,23.70
2022-12-18T10:31:05.892Z,29.10
2022-12-18T10:34:40.801Z,22.10
2022-12-18T10:38:18.146Z,23.70
2022-12-18T10:42:20.726Z,25.60
2022-12-18T10:46:03.091Z,26.20
2022-12-18T10:49:32.335Z,21.70
2022-12-18T10:53:05.557Z,23.40
2022-12-18T10:56:41.995Z,19.80
2022-12-18T11:00:31.656Z,18.80
2022-12-18T11:04:35.551Z,21.60
2022-12-18T11:07:59.881Z,21.70
2022-12-18T11:12:00.440Z,20.50
2022-12-18T11:15:30.699Z,26.70
2022-12-18T11:19:28.969Z,29.70
2022-12-18T11:23:00.623Z,33.10
2022-12-18T11:26:47.905Z,24.20
2022-12-18T11:30:37.111Z,24.70
2022-12-18T11:34:31.425Z,25.30
2022-12-18T11:38:03.983Z,22.00
2022-12-18T11:41:58.544Z,23.20
2022-12-18T11:45:28.620Z,28.10
2022-12-18T11:49:18.568Z,24.40
2022-12-18T11:52:42.808Z,16.20
2022-12-18T11:56:31.884Z,22.30
2022-12-18T12:00:19.420Z,20.10
2022-12-18T12:03:56.668Z,24.60
2022-12-18T12:07:46.830Z,24.70
2022-12-18T12:11:53.621Z,25.30
2022-12-18T12:15:40.326Z,28.70
2022-12-18T12:19:24.044Z,40.30
2022-12-18T12:22:58.456Z,38.30
2022-12-18T12:26:50.511Z,47.90
2022-12-18T12:30:21.050Z,28.50
2022-12-18T12:34:00.972Z,30.30
2022-12-18T12:38:09.068Z,32.30
2022-12-18T12:42:17.852Z,37.00
2022-12-18T12:45:56.829Z,29.10
2022-12-18T12:49:23.706Z,39.60
2022-12-18T12:52:58.357Z,33.00
2022-12-18T12:56:45.835Z,42.00
2022-12-18T13:00:17.527Z,38.50
2022-12-18T13:04:08.210Z,34.40
2022-12-18T13:08:02.799Z,38.10
2022-12-18T13:12:04.223Z,43.70
2022-12-18T13:19:36.945Z,52.40
2022-12-18T13:22:59.374Z,66.60
2022-12-18T13:26:37.118Z,51.70
2022-12-18T13:30:46.812Z,41.80
2022-12-18T13:34:31.468Z,39.00
2022-12-18T13:38:35.729Z,55.80
2022-12-18T13:42:07.374Z,57.80
2022-12-18T13:45:59.498Z,79.60
2022-12-18T13:49:44.218Z,80.00
2022-12-18T13:53:30.112Z,91.30
2022-12-18T13:56:52.546Z,74.50
2022-12-18T14:00:30.885Z,77.40
2022-12-18T14:04:29.599Z,62.80
2022-12-18T14:08:14.400Z,57.30
2022-12-18T14:11:36.942Z,53.30
2022-12-18T14:15:26.701Z,45.70
2022-12-18T14:19:02.738Z,47.50
2022-12-18T14:22:34.470Z,47.70
2022-12-18T14:26:29.832Z,43.70
2022-12-18T14:30:23.999Z,42.60
2022-12-18T14:33:46.151Z,40.50
2022-12-18T14:37:26.808Z,41.80
2022-12-18T14:41:02.776Z,45.70
2022-12-18T14:45:55.375Z,34.20
2022-12-18T14:49:35.213Z,36.80
2022-12-18T14:52:58.333Z,36.20
2022-12-18T14:57:22.509Z,35.80
2022-12-18T15:01:03.393Z,47.60
2022-12-18T15:04:38.269Z,44.30
2022-12-18T15:08:29.925Z,45.20
2022-12-18T15:12:01.273Z,38.50
2022-12-18T15:15:40.502Z,51.70
2022-12-18T15:19:09.025Z,32.50
2022-12-18T15:22:48.644Z,45.20
2022-12-18T15:26:23.408Z,36.40
2022-12-18T15:30:09.862Z,38.70
2022-12-18T15:33:59.274Z,34.40
2022-12-18T15:37:21.387Z,43.70
2022-12-18T15:40:59.730Z,39.40
2022-12-18T15:44:55.935Z,48.90
2022-12-18T15:48:43.006Z,43.20
2022-12-18T15:52:05.213Z,45.70
2022-12-18T15:56:01.811Z,46.90
2022-12-18T15:59:24.866Z,41.80
2022-12-18T16:03:03.669Z,34.80
2022-12-18T16:07:12.795Z,39.40
2022-12-18T16:10:25.012Z,36.80
2022-12-18T16:14:01.014Z,35.20
2022-12-18T16:17:39.041Z,23.90
2022-12-18T16:21:16.463Z,35.10
2022-12-18T16:25:25.189Z,37.50
2022-12-18T16:29:10.368Z,43.70
2022-12-18T16:32:35.501Z,34.30
2022-12-18T16:36:10.303Z,34.80
2022-12-18T16:39:48.175Z,41.90
2022-12-18T16:43:25.785Z,55.00
2022-12-18T16:47:03.996Z,65.00
2022-12-18T16:50:40.756Z,59.50
2022-12-18T16:54:19.710Z,56.80
2022-12-18T16:58:15.223Z,86.00
2022-12-18T17:01:37.492Z,58.00
2022-12-18T17:05:14.883Z,52.60
2022-12-18T17:09:01.413Z,24.40
2022-12-18T17:12:50.610Z,34.30
2022-12-18T17:16:31.922Z,55.80
2022-12-18T17:19:54.943Z,71.30
2022-12-18T17:23:51.944Z,46.30
2022-12-18T17:27:15.191Z,74.60
2022-12-18T17:30:53.408Z,56.90
2022-12-18T17:34:29.749Z,39.20
2022-12-18T17:38:07.444Z,36.00
2022-12-18T17:41:44.821Z,28.40
2022-12-18T17:45:22.867Z,44.50
2022-12-18T17:49:01.786Z,34.20
2022-12-18T17:52:38.177Z,44.70
2022-12-18T17:56:19.192Z,35.90
2022-12-18T17:59:54.590Z,20.30
2022-12-18T18:03:33.194Z,38.80
2022-12-18T18:07:27.679Z,30.10
2022-12-18T18:10:51.454Z,40.20
2022-12-18T18:14:27.945Z,46.80
2022-12-18T18:18:24.579Z,26.80
2022-12-18T18:21:49.739Z,38.20
2022-12-18T18:25:24.383Z,30.60
2022-12-18T18:29:04.851Z,33.00
2022-12-18T18:32:40.104Z,28.70
2022-12-18T18:36:17.465Z,24.70
2022-12-18T18:39:56.921Z,19.30
2022-12-18T18:43:32.921Z,23.10
2022-12-18T18:47:10.576Z,31.00
2022-12-18T18:51:06.455Z,20.20
2022-12-18T18:54:31.134Z,32.40
2022-12-18T18:58:26.791Z,36.60
2022-12-18T19:01:49.106Z,32.60
2022-12-18T19:05:27.800Z,44.10
2022-12-18T19:09:06.743Z,27.80
2022-12-18T19:13:00.822Z,19.20
2022-12-18T19:16:44.676Z,28.10
2022-12-18T19:20:27.754Z,26.00
2022-12-18T19:23:50.969Z,30.70
2022-12-18T19:27:27.717Z,34.80
2022-12-18T19:31:28.054Z,38.60
2022-12-18T19:34:53.948Z,29.80
2022-12-18T19:38:31.134Z,20.80
2022-12-18T19:42:09.231Z,21.60
2022-12-18T19:45:46.441Z,43.40
2022-12-18T19:49:26.093Z,24.40
2022-12-18T19:53:20.711Z,31.70
2022-12-18T19:56:43.434Z,22.90
2022-12-18T20:00:39.482Z,25.30
2022-12-18T20:04:01.787Z,22.60
2022-12-18T20:07:39.446Z,28.30
2022-12-18T20:11:17.168Z,29.20
2022-12-18T20:14:54.301Z,29.30
2022-12-18T20:18:33.187Z,27.20
2022-12-18T20:22:10.024Z,13.60
2022-12-18T20:25:47.344Z,27.60
2022-12-18T20:29:25.065Z,21.10
2022-12-18T20:33:02.847Z,27.40
2022-12-18T20:36:40.971Z,20.10
2022-12-18T20:40:23.299Z,48.10
2022-12-18T20:43:55.744Z,33.40
2022-12-18T20:47:55.488Z,32.20
2022-12-18T20:51:36.680Z,23.00
2022-12-18T20:54:58.904Z,16.90
2022-12-18T20:58:37.326Z,19.30
2022-12-18T21:02:33.896Z,30.60
2022-12-18T21:05:56.087Z,36.30
2022-12-18T21:09:37.558Z,18.30
2022-12-18T21:13:11.380Z,28.00
2022-12-18T21:17:08.566Z,26.30
2022-12-18T21:20:30.405Z,28.40
2022-12-18T21:24:09.891Z,26.40
2022-12-18T21:27:45.610Z,21.90
2022-12-18T21:31:25.794Z,37.30
2022-12-18T21:35:01.322Z,27.10
2022-12-18T21:38:38.932Z,28.30
2022-12-18T21:42:54.155Z,37.40
2022-12-18T21:46:17.844Z,23.10
2022-12-18T21:49:54.438Z,28.60
2022-12-18T21:53:51.129Z,29.60
2022-12-18T21:57:32.448Z,27.70
2022-12-18T22:00:55.622Z,36.90
2022-12-18T22:04:32.772Z,34.00
2022-12-18T22:08:29.250Z,24.40
2022-12-18T22:11:52.555Z,45.80
2022-12-18T22:15:29.552Z,42.50
2022-12-18T22:19:10.361Z,31.90
2022-12-18T22:22:45.173Z,32.40
2022-12-18T22:26:24.016Z,39.70
2022-12-18T22:30:05.585Z,39.90
2022-12-18T22:33:37.676Z,25.00
2022-12-18T22:37:15.360Z,9.20
2022-12-18T22:41:11.772Z,35.70
2022-12-18T22:44:34.271Z,21.70
2022-12-18T22:48:11.747Z,20.00
2022-12-18T22:51:50.521Z,22.60
2022-12-18T22:55:45.945Z,25.40
2022-12-18T22:59:09.639Z,24.00
2022-12-18T23:02:46.571Z,32.70
2022-12-18T23:06:44.138Z,33.60
2022-12-18T23:10:26.769Z,28.90
2022-12-18T23:13:48.943Z,29.20
2022-12-18T23:17:45.497Z,35.60
2022-12-18T23:21:10.998Z,28.80
2022-12-18T23:25:04.404Z,31.30
2022-12-18T23:28:26.557Z,25.30
2022-12-18T23:32:04.217Z,38.10
2022-12-18T23:35:41.872Z,26.10
2022-12-18T23:39:29.768Z,21.20
2022-12-18T23:42:58.654Z,28.00
2022-12-18T23:46:53.947Z,45.80
2022-12-18T23:50:15.970Z,32.80
2022-12-18T23:53:57.215Z,23.40
2022-12-18T23:57:31.517Z,25.70
